sensor_id;sensor_type;location;lat;lon;timestamp;pressure;altitude;pressure_sealevel;temperature;humidity
57234;BME280;43090;52.604;13.318;2023-05-10T00:02:16;100721.00;;;12.65;54.58
57234;BME280;43090;52.604;13.318;2023-05-10T00:04:46;100724.78;;;12.51;54.31
57234;BME280;43090;52.604;13.318;2023-05-10T00:07:14;100725.50;;;12.64;55.84
57234;BME280;43090;52.604;13.318;2023-05-10T00:09:43;100729.69;;;12.57;56.61
57234;BME280;43090;52.604;13.318;2023-05-10T00:12:09;100720.63;;;12.47;55.13
57234;BME280;43090;52.604;13.318;2023-05-10T00:14:36;100719.66;;;12.37;57.74
57234;BME280;43090;52.604;13.318;2023-05-10T00:17:02;100718.81;;;12.36;58.01
57234;BME280;43090;52.604;13.318;2023-05-10T00:19:29;100711.22;;;12.30;57.88
57234;BME280;43090;52.604;13.318;2023-05-10T00:21:55;100713.56;;;12.35;58.32
57234;BME280;43090;52.604;13.318;2023-05-10T00:24:22;100706.09;;;12.15;57.68
57234;BME280;43090;52.604;13.318;2023-05-10T00:26:48;100710.13;;;12.32;57.26
57234;BME280;43090;52.604;13.318;2023-05-10T00:29:15;100704.28;;;12.39;57.61
57234;BME280;43090;52.604;13.318;2023-05-10T00:31:41;100700.34;;;12.09;56.90
57234;BME280;43090;52.604;13.318;2023-05-10T00:34:08;100694.25;;;12.07;58.14
57234;BME280;43090;52.604;13.318;2023-05-10T00:36:35;100694.75;;;12.23;58.70
57234;BME280;43090;52.604;13.318;2023-05-10T00:39:01;100693.75;;;12.13;60.02
57234;BME280;43090;52.604;13.318;2023-05-10T00:41:29;100688.75;;;12.20;58.57
57234;BME280;43090;52.604;13.318;2023-05-10T00:43:58;100692.81;;;12.25;58.37
57234;BME280;43090;52.604;13.318;2023-05-10T00:46:25;100691.34;;;12.21;58.05
57234;BME280;43090;52.604;13.318;2023-05-10T00:48:52;100688.31;;;12.14;58.53
57234;BME280;43090;52.604;13.318;2023-05-10T00:51:18;100695.22;;;12.17;59.24
57234;BME280;43090;52.604;13.318;2023-05-10T00:53:45;100686.94;;;11.97;57.02
57234;BME280;43090;52.604;13.318;2023-05-10T00:56:12;100683.75;;;12.26;57.87
57234;BME280;43090;52.604;13.318;2023-05-10T00:58:39;100679.00;;;12.07;57.96
57234;BME280;43090;52.604;13.318;2023-05-10T01:01:06;100680.56;;;11.98;57.40
57234;BME280;43090;52.604;13.318;2023-05-10T01:03:33;100671.28;;;11.91;59.72
57234;BME280;43090;52.604;13.318;2023-05-10T01:05:59;100679.00;;;12.07;58.75
57234;BME280;43090;52.604;13.318;2023-05-10T01:08:26;100672.13;;;11.92;59.53
57234;BME280;43090;52.604;13.318;2023-05-10T01:10:52;100674.25;;;11.64;59.21
57234;BME280;43090;52.604;13.318;2023-05-10T01:13:36;100671.53;;;11.88;58.81
57234;BME280;43090;52.604;13.318;2023-05-10T01:16:03;100665.88;;;11.80;59.90
57234;BME280;43090;52.604;13.318;2023-05-10T01:18:30;100663.13;;;11.57;59.58
57234;BME280;43090;52.604;13.318;2023-05-10T01:23:43;100659.28;;;11.73;60.42
57234;BME280;43090;52.604;13.318;2023-05-10T01:26:34;100652.16;;;11.49;60.48
57234;BME280;43090;52.604;13.318;2023-05-10T01:51:41;100639.16;;;10.96;63.46
57234;BME280;43090;52.604;13.318;2023-05-10T01:54:12;100644.38;;;11.22;61.68
57234;BME280;43090;52.604;13.318;2023-05-10T01:56:44;100648.84;;;11.45;62.16
57234;BME280;43090;52.604;13.318;2023-05-10T01:59:17;100643.72;;;11.42;60.12
57234;BME280;43090;52.604;13.318;2023-05-10T02:01:45;100646.72;;;11.62;61.76
57234;BME280;43090;52.604;13.318;2023-05-10T02:04:15;100628.09;;;11.25;61.84
57234;BME280;43090;52.604;13.318;2023-05-10T02:06:45;100642.59;;;11.33;61.13
57234;BME280;43090;52.604;13.318;2023-05-10T02:09:14;100628.16;;;11.59;61.24
57234;BME280;43090;52.604;13.318;2023-05-10T02:11:42;100622.16;;;11.44;59.25
57234;BME280;43090;52.604;13.318;2023-05-10T02:14:11;100642.06;;;11.64;60.70
57234;BME280;43090;52.604;13.318;2023-05-10T02:16:38;100630.59;;;11.50;60.63
57234;BME280;43090;52.604;13.318;2023-05-10T02:19:07;100641.94;;;11.54;61.39
57234;BME280;43090;52.604;13.318;2023-05-10T02:21:35;100639.03;;;11.69;60.33
57234;BME280;43090;52.604;13.318;2023-05-10T02:24:06;100623.09;;;11.31;61.38
57234;BME280;43090;52.604;13.318;2023-05-10T02:26:36;100632.25;;;11.29;58.91
57234;BME280;43090;52.604;13.318;2023-05-10T02:29:05;100618.25;;;11.37;60.07
57234;BME280;43090;52.604;13.318;2023-05-10T02:31:33;100619.53;;;11.66;59.06
57234;BME280;43090;52.604;13.318;2023-05-10T02:34:02;100622.94;;;11.80;60.47
57234;BME280;43090;52.604;13.318;2023-05-10T02:36:29;100633.91;;;11.54;60.62
57234;BME280;43090;52.604;13.318;2023-05-10T02:38:56;100624.59;;;11.36;61.66
57234;BME280;43090;52.604;13.318;2023-05-10T02:41:24;100634.16;;;11.62;60.22
57234;BME280;43090;52.604;13.318;2023-05-10T02:43:55;100625.09;;;11.52;59.70
57234;BME280;43090;52.604;13.318;2023-05-10T02:46:25;100619.53;;;11.20;60.42
57234;BME280;43090;52.604;13.318;2023-05-10T02:48:53;100624.13;;;11.42;59.21
57234;BME280;43090;52.604;13.318;2023-05-10T02:51:20;100622.41;;;11.41;59.91
57234;BME280;43090;52.604;13.318;2023-05-10T02:53:54;100610.47;;;11.45;61.08
57234;BME280;43090;52.604;13.318;2023-05-10T02:56:31;100630.72;;;11.49;59.65
57234;BME280;43090;52.604;13.318;2023-05-10T02:58:59;100623.09;;;11.67;60.29
57234;BME280;43090;52.604;13.318;2023-05-10T03:01:26;100624.88;;;11.55;60.10
57234;BME280;43090;52.604;13.318;2023-05-10T03:03:52;100623.28;;;11.64;61.29
57234;BME280;43090;52.604;13.318;2023-05-10T03:06:19;100618.59;;;11.32;60.59
57234;BME280;43090;52.604;13.318;2023-05-10T03:08:45;100627.38;;;11.34;62.24
57234;BME280;43090;52.604;13.318;2023-05-10T03:11:28;100616.72;;;11.21;62.89
57234;BME280;43090;52.604;13.318;2023-05-10T03:17:11;100616.56;;;10.87;60.85
57234;BME280;43090;52.604;13.318;2023-05-10T03:19:51;100624.41;;;11.26;60.75
57234;BME280;43090;52.604;13.318;2023-05-10T03:22:31;100617.88;;;11.06;60.74
57234;BME280;43090;52.604;13.318;2023-05-10T03:25:00;100620.94;;;11.12;62.12
57234;BME280;43090;52.604;13.318;2023-05-10T03:27:30;100608.94;;;11.18;59.52
57234;BME280;43090;52.604;13.318;2023-05-10T03:29:57;100610.78;;;10.93;59.95
57234;BME280;43090;52.604;13.318;2023-05-10T03:32:24;100629.16;;;11.22;60.94
57234;BME280;43090;52.604;13.318;2023-05-10T03:34:50;100610.38;;;10.87;59.44
57234;BME280;43090;52.604;13.318;2023-05-10T03:37:17;100612.09;;;10.88;61.74
57234;BME280;43090;52.604;13.318;2023-05-10T03:39:43;100613.31;;;11.19;61.84
57234;BME280;43090;52.604;13.318;2023-05-10T03:42:10;100600.66;;;11.21;62.70
57234;BME280;43090;52.604;13.318;2023-05-10T03:44:41;100625.28;;;11.26;60.68
57234;BME280;43090;52.604;13.318;2023-05-10T03:47:08;100606.94;;;11.09;59.98
57234;BME280;43090;52.604;13.318;2023-05-10T03:49:34;100614.06;;;11.21;61.44
57234;BME280;43090;52.604;13.318;2023-05-10T03:52:01;100602.09;;;10.90;61.99
57234;BME280;43090;52.604;13.318;2023-05-10T03:54:27;100596.44;;;11.30;61.42
57234;BME280;43090;52.604;13.318;2023-05-10T03:56:54;100604.63;;;10.80;61.19
57234;BME280;43090;52.604;13.318;2023-05-10T03:59:20;100602.81;;;11.05;59.50
57234;BME280;43090;52.604;13.318;2023-05-10T04:01:47;100613.09;;;11.33;59.78
57234;BME280;43090;52.604;13.318;2023-05-10T04:04:13;100600.66;;;11.21;61.11
57234;BME280;43090;52.604;13.318;2023-05-10T04:06:40;100610.31;;;10.99;63.04
57234;BME280;43090;52.604;13.318;2023-05-10T04:09:07;100602.59;;;10.83;61.89
57234;BME280;43090;52.604;13.318;2023-05-10T04:11:34;100606.09;;;10.84;61.08
57234;BME280;43090;52.604;13.318;2023-05-10T04:14:01;100598.63;;;11.00;62.09
57234;BME280;43090;52.604;13.318;2023-05-10T04:16:27;100595.53;;;11.18;61.41
57234;BME280;43090;52.604;13.318;2023-05-10T04:18:54;100591.16;;;11.17;60.61
57234;BME280;43090;52.604;13.318;2023-05-10T04:21:20;100594.41;;;11.09;62.77
57234;BME280;43090;52.604;13.318;2023-05-10T04:23:47;100586.81;;;11.03;60.82
57234;BME280;43090;52.604;13.318;2023-05-10T04:26:13;100610.03;;;11.15;61.79
57234;BME280;43090;52.604;13.318;2023-05-10T04:28:40;100591.56;;;10.99;60.36
57234;BME280;43090;52.604;13.318;2023-05-10T04:31:08;100605.25;;;11.19;60.83
57234;BME280;43090;52.604;13.318;2023-05-10T04:33:46;100585.72;;;11.30;61.90
57234;BME280;43090;52.604;13.318;2023-05-10T04:36:12;100600.78;;;11.31;62.75
57234;BME280;43090;52.604;13.318;2023-05-10T04:38:38;100596.56;;;11.04;61.53
57234;BME280;43090;52.604;13.318;2023-05-10T04:41:07;100591.94;;;11.42;62.61
57234;BME280;43090;52.604;13.318;2023-05-10T04:43:34;100590.19;;;11.18;60.37
57234;BME280;43090;52.604;13.318;2023-05-10T04:46:01;100600.97;;;11.41;61.33
57234;BME280;43090;52.604;13.318;2023-05-10T04:48:27;100595.81;;;11.38;59.38
57234;BME280;43090;52.604;13.318;2023-05-10T04:50:54;100600.13;;;11.52;61.37
57234;BME280;43090;52.604;13.318;2023-05-10T04:53:21;100582.31;;;11.39;62.40
57234;BME280;43090;52.604;13.318;2023-05-10T04:55:47;100580.06;;;11.22;59.55
57234;BME280;43090;52.604;13.318;2023-05-10T04:58:14;100584.50;;;11.34;59.59
57234;BME280;43090;52.604;13.318;2023-05-10T05:00:40;100596.81;;;11.48;60.61
57234;BME280;43090;52.604;13.318;2023-05-10T05:03:08;100600.25;;;11.61;60.83
57234;BME280;43090;52.604;13.318;2023-05-10T05:05:34;100591.50;;;11.59;62.47
57234;BME280;43090;52.604;13.318;2023-05-10T05:08:01;100595.34;;;11.44;61.46
57234;BME280;43090;52.604;13.318;2023-05-10T05:10:27;100581.09;;;11.43;59.96
57234;BME280;43090;52.604;13.318;2023-05-10T05:12:54;100574.63;;;11.34;60.13
57234;BME280;43090;52.604;13.318;2023-05-10T05:15:37;100603.00;;;11.84;58.74
57234;BME280;43090;52.604;13.318;2023-05-10T05:18:19;100599.56;;;11.82;59.19
57234;BME280;43090;52.604;13.318;2023-05-10T05:20:46;100594.81;;;11.86;57.90
57234;BME280;43090;52.604;13.318;2023-05-10T05:23:12;100591.28;;;11.74;58.86
57234;BME280;43090;52.604;13.318;2023-05-10T05:25:39;100588.56;;;11.85;59.02
57234;BME280;43090;52.604;13.318;2023-05-10T05:28:05;100585.94;;;11.96;59.96
57234;BME280;43090;52.604;13.318;2023-05-10T05:30:32;100595.41;;;11.89;58.36
57234;BME280;43090;52.604;13.318;2023-05-10T05:32:58;100577.03;;;12.19;58.13
57234;BME280;43090;52.604;13.318;2023-05-10T05:35:25;100582.75;;;12.14;56.20
57234;BME280;43090;52.604;13.318;2023-05-10T05:37:52;100571.31;;;12.00;58.43
57234;BME280;43090;52.604;13.318;2023-05-10T05:40:18;100568.09;;;12.29;58.74
57234;BME280;43090;52.604;13.318;2023-05-10T05:42:46;100574.94;;;12.45;58.42
57234;BME280;43090;52.604;13.318;2023-05-10T05:45:13;100584.88;;;12.65;57.57
57234;BME280;43090;52.604;13.318;2023-05-10T05:47:40;100589.41;;;12.65;56.42
57234;BME280;43090;52.604;13.318;2023-05-10T05:50:08;100559.19;;;12.29;55.19
57234;BME280;43090;52.604;13.318;2023-05-10T05:52:35;100566.28;;;12.74;55.85
57234;BME280;43090;52.604;13.318;2023-05-10T05:55:02;100557.38;;;12.73;56.81
57234;BME280;43090;52.604;13.318;2023-05-10T05:57:30;100565.19;;;12.97;56.45
57234;BME280;43090;52.604;13.318;2023-05-10T05:59:56;100545.13;;;12.80;56.23
57234;BME280;43090;52.604;13.318;2023-05-10T06:02:23;100550.25;;;12.83;57.49
57234;BME280;43090;52.604;13.318;2023-05-10T06:04:54;100542.44;;;12.80;58.50
57234;BME280;43090;52.604;13.318;2023-05-10T06:07:21;100563.44;;;13.08;55.16
57234;BME280;43090;52.604;13.318;2023-05-10T06:09:47;100572.00;;;13.34;55.42
57234;BME280;43090;52.604;13.318;2023-05-10T06:12:15;100583.28;;;13.49;53.69
57234;BME280;43090;52.604;13.318;2023-05-10T06:14:41;100581.78;;;13.56;52.60
57234;BME280;43090;52.604;13.318;2023-05-10T06:17:08;100575.19;;;13.70;52.64
57234;BME280;43090;52.604;13.318;2023-05-10T06:19:35;100578.06;;;13.47;55.48
57234;BME280;43090;52.604;13.318;2023-05-10T06:22:02;100573.78;;;13.66;52.63
57234;BME280;43090;52.604;13.318;2023-05-10T06:24:28;100571.03;;;13.56;52.82
57234;BME280;43090;52.604;13.318;2023-05-10T06:26:55;100578.22;;;13.56;54.12
57234;BME280;43090;52.604;13.318;2023-05-10T06:29:21;100569.50;;;13.63;54.47
57234;BME280;43090;52.604;13.318;2023-05-10T06:31:50;100581.72;;;13.98;51.75
57234;BME280;43090;52.604;13.318;2023-05-10T06:34:17;100569.22;;;13.66;52.51
57234;BME280;43090;52.604;13.318;2023-05-10T06:36:44;100548.53;;;13.88;54.54
57234;BME280;43090;52.604;13.318;2023-05-10T06:39:10;100568.19;;;13.79;53.46
57234;BME280;43090;52.604;13.318;2023-05-10T06:41:43;100544.56;;;13.82;53.86
57234;BME280;43090;52.604;13.318;2023-05-10T06:44:10;100559.00;;;13.91;53.43
57234;BME280;43090;52.604;13.318;2023-05-10T06:46:36;100555.44;;;14.22;51.29
57234;BME280;43090;52.604;13.318;2023-05-10T06:49:03;100557.91;;;13.94;54.45
57234;BME280;43090;52.604;13.318;2023-05-10T06:51:30;100563.97;;;14.27;51.05
57234;BME280;43090;52.604;13.318;2023-05-10T06:53:59;100561.56;;;14.33;50.88
57234;BME280;43090;52.604;13.318;2023-05-10T06:56:26;100539.56;;;14.28;50.60
57234;BME280;43090;52.604;13.318;2023-05-10T06:58:53;100568.66;;;14.44;51.03
57234;BME280;43090;52.604;13.318;2023-05-10T07:01:19;100580.47;;;14.53;51.81
57234;BME280;43090;52.604;13.318;2023-05-10T07:03:46;100558.13;;;15.11;50.32
57234;BME280;43090;52.604;13.318;2023-05-10T07:06:12;100575.06;;;15.61;48.75
57234;BME280;43090;52.604;13.318;2023-05-10T07:08:57;100574.13;;;16.27;47.64
57234;BME280;43090;52.604;13.318;2023-05-10T07:11:24;100553.28;;;16.20;46.69
57234;BME280;43090;52.604;13.318;2023-05-10T07:13:50;100574.50;;;16.78;45.51
57234;BME280;43090;52.604;13.318;2023-05-10T07:16:17;100558.69;;;16.38;46.21
57234;BME280;43090;52.604;13.318;2023-05-10T07:18:44;100557.03;;;16.09;47.13
57234;BME280;43090;52.604;13.318;2023-05-10T07:21:10;100558.47;;;16.31;45.36
57234;BME280;43090;52.604;13.318;2023-05-10T07:23:37;100551.38;;;16.30;47.11
57234;BME280;43090;52.604;13.318;2023-05-10T07:26:04;100561.72;;;16.35;46.94
57234;BME280;43090;52.604;13.318;2023-05-10T07:28:36;100559.75;;;16.27;46.94
57234;BME280;43090;52.604;13.318;2023-05-10T07:31:03;100523.88;;;16.35;45.25
57234;BME280;43090;52.604;13.318;2023-05-10T07:33:30;100528.19;;;17.09;47.03
57234;BME280;43090;52.604;13.318;2023-05-10T07:35:57;100546.31;;;17.17;47.50
57234;BME280;43090;52.604;13.318;2023-05-10T07:38:24;100521.31;;;16.97;45.24
57234;BME280;43090;52.604;13.318;2023-05-10T07:40:53;100557.72;;;16.75;44.90
57234;BME280;43090;52.604;13.318;2023-05-10T07:43:20;100534.44;;;16.74;45.46
57234;BME280;43090;52.604;13.318;2023-05-10T07:45:47;100553.56;;;17.35;46.58
57234;BME280;43090;52.604;13.318;2023-05-10T07:48:14;100537.38;;;17.95;43.00
57234;BME280;43090;52.604;13.318;2023-05-10T07:50:41;100559.31;;;18.94;42.90
57234;BME280;43090;52.604;13.318;2023-05-10T07:53:07;100558.31;;;19.04;41.78
57234;BME280;43090;52.604;13.318;2023-05-10T07:55:37;100549.16;;;18.96;40.64
57234;BME280;43090;52.604;13.318;2023-05-10T07:58:07;100557.38;;;20.34;39.68
57234;BME280;43090;52.604;13.318;2023-05-10T08:00:33;100551.31;;;20.23;40.24
57234;BME280;43090;52.604;13.318;2023-05-10T08:03:00;100557.47;;;19.36;41.24
57234;BME280;43090;52.604;13.318;2023-05-10T08:05:26;100515.88;;;18.70;42.33
57234;BME280;43090;52.604;13.318;2023-05-10T08:07:53;100553.41;;;18.31;42.17
57234;BME280;43090;52.604;13.318;2023-05-10T08:10:20;100518.38;;;17.61;42.35
57234;BME280;43090;52.604;13.318;2023-05-10T08:12:51;100518.19;;;17.10;45.38
57234;BME280;43090;52.604;13.318;2023-05-10T08:15:18;100552.16;;;17.57;45.23
57234;BME280;43090;52.604;13.318;2023-05-10T08:17:45;100525.47;;;17.62;43.56
57234;BME280;43090;52.604;13.318;2023-05-10T08:20:13;100529.03;;;17.62;46.97
57234;BME280;43090;52.604;13.318;2023-05-10T08:22:43;100532.97;;;17.42;44.86
57234;BME280;43090;52.604;13.318;2023-05-10T08:25:09;100547.03;;;17.45;45.43
57234;BME280;43090;52.604;13.318;2023-05-10T08:27:36;100555.38;;;17.52;43.31
57234;BME280;43090;52.604;13.318;2023-05-10T08:33:22;100551.13;;;17.76;44.84
57234;BME280;43090;52.604;13.318;2023-05-10T08:35:58;100558.69;;;17.98;44.02
57234;BME280;43090;52.604;13.318;2023-05-10T08:38:25;100538.06;;;18.06;43.92
57234;BME280;43090;52.604;13.318;2023-05-10T08:40:54;100565.91;;;18.24;44.82
57234;BME280;43090;52.604;13.318;2023-05-10T08:43:26;100534.50;;;18.56;41.41
57234;BME280;43090;52.604;13.318;2023-05-10T08:45:55;100524.75;;;19.21;43.07
57234;BME280;43090;52.604;13.318;2023-05-10T08:48:28;100560.88;;;19.38;41.93
57234;BME280;43090;52.604;13.318;2023-05-10T08:50:57;100523.84;;;18.71;43.94
57234;BME280;43090;52.604;13.318;2023-05-10T08:53:26;100533.56;;;18.98;41.35
57234;BME280;43090;52.604;13.318;2023-05-10T08:55:53;100531.97;;;18.63;40.59
57234;BME280;43090;52.604;13.318;2023-05-10T08:58:20;100551.97;;;18.78;43.73
57234;BME280;43090;52.604;13.318;2023-05-10T09:00:49;100542.16;;;18.86;42.68
57234;BME280;43090;52.604;13.318;2023-05-10T09:03:18;100531.97;;;18.63;44.17
57234;BME280;43090;52.604;13.318;2023-05-10T09:05:45;100529.47;;;18.94;41.48
57234;BME280;43090;52.604;13.318;2023-05-10T09:08:13;100553.41;;;18.91;41.14
57234;BME280;43090;52.604;13.318;2023-05-10T09:10:41;100563.72;;;19.04;40.54
57234;BME280;43090;52.604;13.318;2023-05-10T09:13:14;100539.50;;;19.10;41.38
57234;BME280;43090;52.604;13.318;2023-05-10T09:15:43;100539.81;;;19.07;40.31
57234;BME280;43090;52.604;13.318;2023-05-10T09:18:10;100556.13;;;18.91;42.02
57234;BME280;43090;52.604;13.318;2023-05-10T09:20:37;100563.06;;;19.18;42.04
57234;BME280;43090;52.604;13.318;2023-05-10T09:23:04;100541.66;;;18.82;42.56
57234;BME280;43090;52.604;13.318;2023-05-10T09:25:31;100533.16;;;18.85;42.33
57234;BME280;43090;52.604;13.318;2023-05-10T09:28:01;100559.97;;;19.46;40.62
57234;BME280;43090;52.604;13.318;2023-05-10T09:30:31;100535.56;;;19.13;42.31
57234;BME280;43090;52.604;13.318;2023-05-10T09:32:59;100532.72;;;19.14;39.99
57234;BME280;43090;52.604;13.318;2023-05-10T09:35:31;100552.88;;;19.45;43.62
57234;BME280;43090;52.604;13.318;2023-05-10T09:38:01;100575.94;;;19.49;41.27
57234;BME280;43090;52.604;13.318;2023-05-10T09:40:29;100569.50;;;19.50;39.75
57234;BME280;43090;52.604;13.318;2023-05-10T09:43:04;100562.69;;;19.46;42.09
57234;BME280;43090;52.604;13.318;2023-05-10T09:45:34;100562.69;;;19.46;41.83
57234;BME280;43090;52.604;13.318;2023-05-10T09:48:04;100555.59;;;19.20;41.70
57234;BME280;43090;52.604;13.318;2023-05-10T09:50:33;100576.63;;;19.10;41.86
57234;BME280;43090;52.604;13.318;2023-05-10T09:53:02;100535.25;;;19.24;41.16
57234;BME280;43090;52.604;13.318;2023-05-10T09:55:40;100572.69;;;19.54;41.24
57234;BME280;43090;52.604;13.318;2023-05-10T09:58:10;100531.69;;;19.32;40.82
57234;BME280;43090;52.604;13.318;2023-05-10T10:00:41;100569.22;;;20.01;41.14
57234;BME280;43090;52.604;13.318;2023-05-10T10:03:16;100557.19;;;19.95;39.30
57234;BME280;43090;52.604;13.318;2023-05-10T10:05:44;100571.75;;;20.03;38.98
57234;BME280;43090;52.604;13.318;2023-05-10T10:08:12;100561.03;;;20.09;39.64
57234;BME280;43090;52.604;13.318;2023-05-10T10:10:39;100562.56;;;20.12;41.57
57234;BME280;43090;52.604;13.318;2023-05-10T10:13:12;100566.69;;;20.00;39.27
57234;BME280;43090;52.604;13.318;2023-05-10T10:15:39;100554.66;;;19.94;41.48
57234;BME280;43090;52.604;13.318;2023-05-10T10:18:13;100559.91;;;19.95;40.93
57234;BME280;43090;52.604;13.318;2023-05-10T10:20:39;100545.78;;;20.00;39.85
57234;BME280;43090;52.604;13.318;2023-05-10T10:23:07;100569.59;;;20.38;39.37
57234;BME280;43090;52.604;13.318;2023-05-10T10:25:34;100550.47;;;20.14;39.48
57234;BME280;43090;52.604;13.318;2023-05-10T10:28:11;100543.63;;;20.58;39.90
57234;BME280;43090;52.604;13.318;2023-05-10T10:30:43;100558.97;;;20.20;41.56
57234;BME280;43090;52.604;13.318;2023-05-10T10:33:31;100547.66;;;20.62;39.36
57234;BME280;43090;52.604;13.318;2023-05-10T10:36:01;100543.94;;;20.32;39.73
57234;BME280;43090;52.604;13.318;2023-05-10T10:38:54;100562.69;;;20.27;39.42
57234;BME280;43090;52.604;13.318;2023-05-10T10:41:32;100562.19;;;20.55;39.55
57234;BME280;43090;52.604;13.318;2023-05-10T10:44:25;100559.69;;;20.76;38.23
57234;BME280;43090;52.604;13.318;2023-05-10T10:49:51;100561.03;;;20.80;38.64
57234;BME280;43090;52.604;13.318;2023-05-10T10:52:36;100559.69;;;20.45;38.81
57234;BME280;43090;52.604;13.318;2023-05-10T10:55:08;100567.53;;;20.40;40.08
57234;BME280;43090;52.604;13.318;2023-05-10T11:00:27;100554.31;;;20.91;38.76
57234;BME280;43090;52.604;13.318;2023-05-10T11:08:07;100547.72;;;20.86;39.70
57234;BME280;43090;52.604;13.318;2023-05-10T11:10:35;100546.94;;;20.77;38.76
57234;BME280;43090;52.604;13.318;2023-05-10T11:13:05;100550.69;;;20.99;38.27
57234;BME280;43090;52.604;13.318;2023-05-10T11:15:48;100546.56;;;21.41;37.38
57234;BME280;43090;52.604;13.318;2023-05-10T11:18:24;100537.41;;;21.19;37.00
57234;BME280;43090;52.604;13.318;2023-05-10T11:20:55;100546.63;;;20.72;38.74
57234;BME280;43090;52.604;13.318;2023-05-10T11:23:28;100548.16;;;20.97;38.65
57234;BME280;43090;52.604;13.318;2023-05-10T11:25:55;100551.66;;;21.06;40.19
57234;BME280;43090;52.604;13.318;2023-05-10T11:28:22;100536.97;;;21.30;39.25
57234;BME280;43090;52.604;13.318;2023-05-10T11:30:49;100529.69;;;20.85;38.03
57234;BME280;43090;52.604;13.318;2023-05-10T11:33:17;100532.72;;;21.13;36.70
57234;BME280;43090;52.604;13.318;2023-05-10T11:35:44;100533.69;;;20.97;38.14
57234;BME280;43090;52.604;13.318;2023-05-10T11:38:12;100525.47;;;21.05;40.76
57234;BME280;43090;52.604;13.318;2023-05-10T11:40:40;100547.16;;;21.13;38.79
57234;BME280;43090;52.604;13.318;2023-05-10T11:43:09;100545.34;;;21.29;38.69
57234;BME280;43090;52.604;13.318;2023-05-10T11:45:55;100511.03;;;21.20;38.17
57234;BME280;43090;52.604;13.318;2023-05-10T11:48:57;100511.06;;;21.50;36.58
57234;BME280;43090;52.604;13.318;2023-05-10T11:51:45;100544.38;;;21.60;37.93
57234;BME280;43090;52.604;13.318;2023-05-10T11:54:14;100538.28;;;21.58;37.80
57234;BME280;43090;52.604;13.318;2023-05-10T12:12:11;100523.47;;;21.52;38.19
57234;BME280;43090;52.604;13.318;2023-05-10T12:19:05;100514.16;;;21.32;38.80
57234;BME280;43090;52.604;13.318;2023-05-10T12:29:17;100540.25;;;21.79;38.70
57234;BME280;43090;52.604;13.318;2023-05-10T12:32:01;100537.06;;;21.75;37.16
57234;BME280;43090;52.604;13.318;2023-05-10T12:39:02;100539.69;;;21.69;35.48
57234;BME280;43090;52.604;13.318;2023-05-10T12:41:32;100531.88;;;21.66;35.20
57234;BME280;43090;52.604;13.318;2023-05-10T13:03:51;100553.84;;;22.09;36.05
57234;BME280;43090;52.604;13.318;2023-05-10T13:06:17;100559.09;;;22.40;35.28
57234;BME280;43090;52.604;13.318;2023-05-10T13:08:46;100553.25;;;22.43;34.86
57234;BME280;43090;52.604;13.318;2023-05-10T13:11:19;100547.31;;;22.76;35.72
57234;BME280;43090;52.604;13.318;2023-05-10T13:13:46;100531.84;;;22.25;37.01
57234;BME280;43090;52.604;13.318;2023-05-10T13:16:13;100537.09;;;22.12;36.22
57234;BME280;43090;52.604;13.318;2023-05-10T13:18:44;100539.06;;;22.48;36.55
57234;BME280;43090;52.604;13.318;2023-05-10T13:21:12;100554.34;;;21.98;37.97
57234;BME280;43090;52.604;13.318;2023-05-10T13:23:39;100554.34;;;21.98;36.80
57234;BME280;43090;52.604;13.318;2023-05-10T13:28:46;100515.56;;;22.17;36.33
57234;BME280;43090;52.604;13.318;2023-05-10T13:35:38;100549.34;;;22.89;33.38
57234;BME280;43090;52.604;13.318;2023-05-10T13:38:24;100521.25;;;22.74;33.31
57234;BME280;43090;52.604;13.318;2023-05-10T13:40:53;100544.72;;;23.33;34.19
57234;BME280;43090;52.604;13.318;2023-05-10T13:43:20;100501.78;;;22.99;33.29
57234;BME280;43090;52.604;13.318;2023-05-10T13:45:48;100526.47;;;22.90;33.66
57234;BME280;43090;52.604;13.318;2023-05-10T13:48:14;100535.81;;;23.24;35.26
57234;BME280;43090;52.604;13.318;2023-05-10T13:50:42;100513.63;;;23.12;34.20
57234;BME280;43090;52.604;13.318;2023-05-10T13:53:10;100516.00;;;22.94;32.38
57234;BME280;43090;52.604;13.318;2023-05-10T13:55:37;100525.69;;;22.96;31.78
57234;BME280;43090;52.604;13.318;2023-05-10T14:01:43;100511.09;;;23.33;33.55
57234;BME280;43090;52.604;13.318;2023-05-10T14:04:13;100533.03;;;23.18;32.07
57234;BME280;43090;52.604;13.318;2023-05-10T14:06:40;100534.28;;;23.15;32.23
57234;BME280;43090;52.604;13.318;2023-05-10T14:09:20;100501.97;;;23.19;34.20
57234;BME280;43090;52.604;13.318;2023-05-10T14:12:05;100520.97;;;23.34;33.10
57234;BME280;43090;52.604;13.318;2023-05-10T14:14:31;100503.16;;;23.38;33.75
57234;BME280;43090;52.604;13.318;2023-05-10T14:16:58;100514.09;;;23.73;32.55
57234;BME280;43090;52.604;13.318;2023-05-10T14:19:31;100498.78;;;23.15;33.17
57234;BME280;43090;52.604;13.318;2023-05-10T14:22:00;100511.97;;;23.40;34.10
57234;BME280;43090;52.604;13.318;2023-05-10T14:24:26;100504.69;;;23.47;32.95
57234;BME280;43090;52.604;13.318;2023-05-10T14:26:56;100519.47;;;23.94;32.39
57234;BME280;43090;52.604;13.318;2023-05-10T14:29:22;100511.28;;;23.94;33.35
57234;BME280;43090;52.604;13.318;2023-05-10T14:31:49;100544.00;;;23.81;33.92
57234;BME280;43090;52.604;13.318;2023-05-10T14:34:32;100522.53;;;23.78;30.88
57234;BME280;43090;52.604;13.318;2023-05-10T14:36:59;100509.91;;;24.12;31.14